Rose City, Michigan
Current Conditions -  °F | °C
As of 4:53 AM on Tuesday 21 Oct 2014 (Local Time) from KHTL Reporting Station
Overcast Overcast  
Wind Chill: 39°   Ceiling: 2000
Heat Index: 43°   Visibility: 10mi
Dew Point: 41°   Wind: 7mph
Humidity: 93%   Direction: 10°N
Pressure: 29.96"   Gusts: NA
Location:  44.42°N, 84.12°W
Report Text: KHTL 210853Z AUTO 01006KT 10SM FEW014 OVC020 06/05 A2996 RMK AO2 RAE00 SLP153 P0000 60000 T00610050 53015
Loading
Personal Weather Stations






























Interactive Weather Map
Tropical Storm Tracking
New forecast layout! Learn more

10-Day Weather Forecast

Advertisements
Track Severe Weather on mobile